Norway House Airport
CYNE : now visible

Aeroporto :











RITROVATECI SU...

 
LOGIN :

Iscrizione | Disclaimer

   EN    FR    IT 

 









Sommario :    VFR   VFR Marginale   IFR   IFR Intensivo   IFR Molto Intensivo
Visibilità : 
Base nubi : 
>= 8 km
>= 3000ft
5 / 8 km
1000 / 3000 ft
1500m / 5 km
500 / 1000 ft
800 / 1500m
200 / 500 ft
< 800m
< 200 ft
Simboli :   Temporali  Nebbia  Neve Forte  Precipitazioni Forti  Vento > 20 kt







- Altitudine del aeroporto : 734 ft
- Codice IATA : YNE


CYNE - Norway House

ULTIMO METAR :
  • 200600Z AUTO 25002KT 9SM CLR 03/01 A2950 RMK SLP998

METARs OBSOLETI :
  • 200500Z AUTO 29004KT 9SM CLR 04/02 A2949 RMK SLP997
  • 200400Z AUTO 31005KT 9SM FEW190 06/02 A2948 RMK SLP993

TAF TAF CYNE
Valido dal 20 a 07 ore il 20 a 19 ore UTC


200638Z 2007/2019 29005KT P6SM SKC RMK FCST BASED ON AUTO OBS. NXT FCST BY 201300Z
FIR CZWG / America del Nord



MetMap, La meteo Aeronautica in un colpo d'occhio ! - Copyright ORBIFLY Dicembre 2007 - Disclaimer

ORBIFLY MET'MAP TEAM :

Programmazione e sviluppo : Alexandra Zaïnal
Concezione e sviluppo : Baudouin d'Aumeries
Co-Programmazione e sviluppo : Marc-Olivier Méhu
Supporto tecnico e logistico : Manuel Goepfert
Aiuto per la traduzione : Arnaldo La Scala

Contatto : metmap@orbifly.com




FONTI E CREDITI :

   NOAA       Earth
Advisory